Powers Lake, North Dakota
Current Conditions -  °F | °C
As of 12:55 PM on Friday 24 Oct 2014 (Local Time) from KD60 Reporting Station
Clear Clear  
Wind Chill: 59°   Ceiling: Unl
Heat Index: 59°   Visibility: 10mi
Dew Point: 32°   Wind: 26mph
Humidity: 36%   Direction: 280°W
Pressure: 29.91"   Gusts: 38mph
Location:  48.56°N, 102.65°W
Report Text: KD60 241755Z AUTO 28023G33KT 10SM CLR 15/00 A2991 RMK AO2
Loading
Personal Weather Stations






























Interactive Weather Map
Tropical Storm Tracking
New forecast layout! Learn more

10-Day Weather Forecast

Advertisements
Track Severe Weather on mobile